Time;durP1;ratioP1;P1;durP2;ratioP2;P2;SDS_P1;SDS_P2;PMS_P1;PMS_P2;Temp;Humidity;BMP_temperature;BMP_pressure;BME280_temperature;BME280_humidity;BME280_pressure;Samples;Min_cycle;Max_cycle;Signal;HPM_P1;HPM_P2
2024/04/17 00:02:05;;;;;;;10.77;3.67;;;4.90;99.90;;;;;;5335455;26;20468;-79
2024/04/17 00:04:31;;;;;;;14.13;4.57;;;4.80;99.90;;;;;;5336598;26;20009;-80
2024/04/17 00:06:57;;;;;;;13.20;4.03;;;4.80;99.90;;;;;;5336329;26;20024;-79
2024/04/17 00:09:23;;;;;;;13.98;4.03;;;4.80;99.90;;;;;;5384993;26;20395;-80
2024/04/17 00:11:49;;;;;;;16.30;4.18;;;4.80;99.90;;;;;;5337621;26;20016;-79
2024/04/17 00:14:15;;;;;;;9.82;3.80;;;4.70;99.90;;;;;;5333456;26;20460;-80
2024/04/17 00:16:41;;;;;;;14.35;4.70;;;4.70;99.90;;;;;;5337524;26;20423;-80
2024/04/17 00:19:07;;;;;;;17.02;4.70;;;4.70;99.90;;;;;;5336846;26;20005;-80
2024/04/17 00:21:33;;;;;;;10.90;3.55;;;4.70;99.90;;;;;;5336061;26;20032;-81
2024/04/17 00:23:59;;;;;;;13.63;4.18;;;4.60;99.90;;;;;;5334529;26;20019;-80
2024/04/17 00:26:25;;;;;;;14.07;4.20;;;4.60;99.90;;;;;;5334884;26;20049;-81
2024/04/17 00:29:10;;;;;;;12.57;3.80;;;4.60;99.90;;;;;;5328544;26;20000;-80
2024/04/17 00:31:36;;;;;;;13.40;3.80;;;4.60;99.90;;;;;;5333254;26;20440;-79
2024/04/17 00:34:02;;;;;;;13.68;4.35;;;4.60;99.90;;;;;;5339603;26;20028;-79
2024/04/17 00:36:28;;;;;;;10.10;3.67;;;4.50;99.90;;;;;;5336542;26;20009;-80
2024/04/17 00:38:54;;;;;;;11.35;4.78;;;4.50;99.90;;;;;;5387447;26;20001;-79
2024/04/17 00:41:20;;;;;;;14.65;4.85;;;4.50;99.90;;;;;;5337656;26;20475;-80
2024/04/17 00:43:46;;;;;;;14.10;4.50;;;4.50;99.90;;;;;;5335900;26;20009;-80
2024/04/17 00:46:12;;;;;;;12.18;4.43;;;4.40;99.90;;;;;;5336845;26;20024;-80
2024/04/17 00:48:38;;;;;;;11.70;4.60;;;4.40;99.90;;;;;;5338709;26;20005;-79
2024/04/17 00:51:05;;;;;;;12.18;4.13;;;4.40;99.90;;;;;;5338448;26;20020;-80
2024/04/17 00:53:32;;;;;;;15.18;4.38;;;4.40;99.90;;;;;;5322888;26;20056;-79
2024/04/17 00:55:59;;;;;;;13.50;4.40;;;4.30;99.90;;;;;;5337145;26;20027;-80
2024/04/17 00:58:26;;;;;;;13.23;4.60;;;4.30;99.90;;;;;;5337159;26;20459;-80
2024/04/17 01:00:52;;;;;;;16.15;4.22;;;4.30;99.90;;;;;;5333595;26;20009;-80
2024/04/17 01:03:18;;;;;;;16.10;4.70;;;4.30;99.90;;;;;;5338638;26;20041;-80
2024/04/17 01:05:44;;;;;;;11.23;4.55;;;4.30;99.90;;;;;;5336283;26;20005;-80
2024/04/17 01:08:10;;;;;;;13.15;4.65;;;4.30;99.90;;;;;;5335488;26;20011;-80
2024/04/17 01:10:37;;;;;;;16.40;5.45;;;4.20;99.90;;;;;;5338073;26;20024;-80
2024/04/17 01:13:03;;;;;;;13.48;4.60;;;4.20;99.90;;;;;;5328081;26;20001;-80
2024/04/17 01:41:53;;;;;;;16.10;5.15;;;4.20;99.90;;;;;;5336211;26;20013;-80
2024/04/17 01:44:24;;;;;;;10.98;4.03;;;4.20;99.90;;;;;;5335046;26;20016;-80
2024/04/17 01:46:50;;;;;;;11.95;4.93;;;4.20;99.90;;;;;;5334915;26;20001;-81
2024/04/17 01:49:16;;;;;;;18.10;5.72;;;4.30;99.90;;;;;;5334492;26;20013;-80
2024/04/17 01:51:42;;;;;;;13.75;5.30;;;4.30;99.90;;;;;;5336549;26;20009;-81
2024/04/17 01:54:08;;;;;;;16.42;5.45;;;4.40;99.90;;;;;;5330661;26;20008;-81
2024/04/17 01:56:34;;;;;;;12.13;4.75;;;4.40;99.90;;;;;;5334874;26;20064;-80
2024/04/17 01:58:59;;;;;;;9.60;4.40;;;4.50;99.90;;;;;;5335916;26;20552;-80
2024/04/17 02:01:25;;;;;;;15.57;4.72;;;4.50;99.90;;;;;;5334589;26;20008;-80
2024/04/17 02:03:51;;;;;;;11.40;4.53;;;4.60;99.90;;;;;;5332749;26;20317;-81
2024/04/17 02:06:20;;;;;;;11.85;4.70;;;4.60;99.90;;;;;;5336478;26;20005;-80
2024/04/17 02:08:46;;;;;;;12.18;4.97;;;4.70;99.90;;;;;;5332258;26;20013;-80
2024/04/17 02:11:15;;;;;;;12.27;4.60;;;4.70;99.90;;;;;;5331126;26;20120;-80
2024/04/17 02:13:41;;;;;;;12.90;4.50;;;4.80;99.90;;;;;;5364726;26;20020;-80
2024/04/17 02:16:07;;;;;;;14.18;4.43;;;4.80;99.90;;;;;;5332061;26;20005;-80
2024/04/17 02:18:33;;;;;;;10.80;4.60;;;4.80;99.90;;;;;;5335145;26;20492;-80
2024/04/17 02:21:01;;;;;;;12.30;4.72;;;4.80;99.90;;;;;;5335291;26;20005;-81
2024/04/17 02:23:28;;;;;;;11.85;4.70;;;4.90;99.90;;;;;;5335087;26;20369;-81
2024/04/17 02:25:57;;;;;;;10.95;4.40;;;4.90;99.90;;;;;;5333825;26;20317;-81
2024/04/17 02:28:23;;;;;;;13.80;5.32;;;4.90;99.90;;;;;;5330210;26;20015;-81
2024/04/17 02:30:49;;;;;;;11.90;4.80;;;5.00;99.90;;;;;;5335138;26;20001;-80
2024/04/17 02:33:15;;;;;;;11.35;4.93;;;5.00;99.90;;;;;;5338698;26;20013;-81
2024/04/17 02:35:41;;;;;;;9.02;3.97;;;5.00;99.90;;;;;;5336112;26;20017;-80
2024/04/17 02:38:08;;;;;;;9.93;4.88;;;5.10;99.90;;;;;;5331002;26;20012;-81
2024/04/17 02:40:34;;;;;;;10.43;4.13;;;5.10;99.90;;;;;;5335245;26;20033;-80
2024/04/17 02:43:01;;;;;;;9.73;3.97;;;5.10;99.90;;;;;;5337232;26;20005;-81
2024/04/17 02:45:27;;;;;;;10.20;3.90;;;5.10;99.90;;;;;;5336701;26;20436;-81
2024/04/17 02:47:53;;;;;;;8.02;3.92;;;5.20;99.90;;;;;;5334145;26;20001;-81
2024/04/17 02:50:19;;;;;;;9.68;3.53;;;5.20;99.90;;;;;;5332250;26;20008;-81
2024/04/17 02:52:45;;;;;;;7.97;3.40;;;5.20;99.90;;;;;;5334382;26;20375;-81
2024/04/17 02:55:12;;;;;;;7.55;3.47;;;5.20;99.90;;;;;;5337196;26;20061;-81
2024/04/17 02:57:38;;;;;;;5.55;3.38;;;5.20;99.90;;;;;;5336765;26;20678;-81
2024/04/17 03:00:04;;;;;;;8.65;3.97;;;5.30;99.90;;;;;;5327600;26;20013;-80
2024/04/17 03:02:30;;;;;;;11.60;5.07;;;5.30;99.90;;;;;;5337304;26;20855;-80
2024/04/17 03:04:56;;;;;;;7.85;4.07;;;5.30;99.90;;;;;;5342672;26;20005;-81
2024/04/17 03:07:22;;;;;;;7.40;3.97;;;5.30;99.90;;;;;;5336314;26;20351;-81
2024/04/17 03:09:50;;;;;;;5.18;3.05;;;5.30;99.90;;;;;;5336735;26;20472;-81
2024/04/17 03:12:20;;;;;;;9.88;3.80;;;5.30;99.90;;;;;;5364934;26;20001;-80
2024/04/17 03:14:46;;;;;;;10.40;4.30;;;5.40;99.90;;;;;;5333446;26;20005;-81
2024/04/17 03:17:12;;;;;;;8.75;3.72;;;5.40;99.90;;;;;;5336952;26;20078;-81
2024/04/17 03:19:37;;;;;;;11.13;4.63;;;5.40;99.90;;;;;;5335449;26;20765;-81
2024/04/17 03:22:16;;;;;;;11.40;4.65;;;5.40;99.90;;;;;;5388194;26;20027;-81
2024/04/17 03:24:42;;;;;;;9.27;3.80;;;5.40;99.90;;;;;;5337488;26;20008;-81
2024/04/17 03:27:07;;;;;;;7.40;3.58;;;5.40;99.90;;;;;;5336135;26;20356;-82
2024/04/17 03:29:56;;;;;;;7.78;3.10;;;5.40;99.90;;;;;;5337431;26;20001;-81
2024/04/17 03:32:22;;;;;;;7.45;3.53;;;5.40;99.90;;;;;;5339062;26;20008;-81
2024/04/17 03:34:48;;;;;;;6.93;3.20;;;5.40;99.90;;;;;;5341573;26;20005;-81
2024/04/17 03:37:14;;;;;;;7.88;3.72;;;5.50;99.90;;;;;;5335071;26;20016;-80
2024/04/17 03:39:40;;;;;;;7.45;3.13;;;5.50;99.90;;;;;;5337628;26;20008;-81
2024/04/17 03:42:06;;;;;;;8.60;4.05;;;5.40;99.90;;;;;;5337385;26;20082;-81
2024/04/17 03:44:32;;;;;;;6.65;2.90;;;5.50;99.90;;;;;;5335851;26;20460;-81
2024/04/17 03:47:12;;;;;;;7.53;3.10;;;5.50;99.90;;;;;;5335641;26;20008;-81
2024/04/17 03:49:38;;;;;;;7.38;3.42;;;5.50;99.90;;;;;;5337951;26;19997;-81
2024/04/17 03:52:04;;;;;;;7.95;2.95;;;5.50;99.90;;;;;;5335971;26;20015;-81
2024/04/17 03:54:30;;;;;;;6.32;2.85;;;5.50;99.90;;;;;;5334539;26;20005;-81
2024/04/17 03:56:56;;;;;;;5.07;2.58;;;5.50;99.90;;;;;;5334942;26;20024;-81
2024/04/17 03:59:22;;;;;;;6.13;2.80;;;5.50;99.90;;;;;;5336694;26;20838;-81
2024/04/17 04:02:03;;;;;;;6.45;3.25;;;5.60;99.90;;;;;;5331784;26;20005;-81
2024/04/17 04:04:34;;;;;;;6.28;2.80;;;5.50;99.90;;;;;;5335680;26;20471;-81
2024/04/17 04:07:00;;;;;;;4.82;2.65;;;5.60;99.90;;;;;;5335446;26;20005;-81
2024/04/17 04:09:25;;;;;;;5.20;2.72;;;5.60;99.90;;;;;;5334192;26;20017;-81
2024/04/17 04:11:51;;;;;;;8.18;2.85;;;5.60;99.90;;;;;;5334641;26;20087;-81
2024/04/17 04:14:18;;;;;;;6.93;2.50;;;5.60;99.90;;;;;;5338022;26;20802;-81
2024/04/17 04:16:45;;;;;;;6.63;2.47;;;5.50;99.90;;;;;;5341602;26;20049;-79
2024/04/17 04:19:11;;;;;;;5.53;2.70;;;5.60;99.90;;;;;;5335391;26;20465;-79
2024/04/17 04:21:37;;;;;;;6.22;2.85;;;5.50;99.90;;;;;;5338734;26;20005;-79
2024/04/17 04:24:02;;;;;;;7.25;2.60;;;5.50;99.90;;;;;;5336678;26;20422;-81
2024/04/17 04:26:28;;;;;;;5.07;2.47;;;5.50;99.90;;;;;;5336537;26;20086;-81
2024/04/17 04:29:20;;;;;;;4.60;2.63;;;5.50;99.90;;;;;;5366992;26;20035;-82
2024/04/17 04:31:46;;;;;;;6.85;2.75;;;5.40;99.90;;;;;;5342185;26;20082;-82
2024/04/17 04:34:12;;;;;;;6.32;2.15;;;5.50;99.90;;;;;;5335904;26;20056;-79
2024/04/17 04:36:38;;;;;;;5.63;2.30;;;5.50;99.90;;;;;;5337594;26;20020;-79
2024/04/17 04:39:05;;;;;;;6.45;2.55;;;5.50;99.90;;;;;;5339135;26;20483;-80
2024/04/17 04:41:30;;;;;;;6.10;2.50;;;5.50;99.90;;;;;;5334601;26;19998;-80
2024/04/17 04:43:56;;;;;;;5.32;2.45;;;5.40;99.90;;;;;;5333111;26;20016;-80
2024/04/17 04:46:23;;;;;;;4.40;2.30;;;5.40;99.90;;;;;;5337927;26;20017;-79
2024/04/17 04:48:50;;;;;;;4.93;1.80;;;5.40;99.90;;;;;;5335435;26;20080;-80
2024/04/17 04:51:15;;;;;;;4.82;1.85;;;5.40;99.90;;;;;;5340241;26;20009;-80
2024/04/17 04:53:42;;;;;;;7.80;2.30;;;5.50;99.90;;;;;;5335225;26;20001;-79
2024/04/17 04:56:08;;;;;;;5.10;2.50;;;5.50;99.90;;;;;;5392170;26;20009;-79
2024/04/17 04:58:34;;;;;;;5.13;2.40;;;5.40;99.90;;;;;;5332344;26;20448;-79
2024/04/17 05:01:00;;;;;;;6.25;2.33;;;5.50;99.90;;;;;;5331046;26;20000;-80
2024/04/17 05:03:26;;;;;;;4.63;2.35;;;5.50;99.90;;;;;;5364153;26;20004;-80
2024/04/17 05:05:52;;;;;;;5.25;2.25;;;5.40;99.90;;;;;;5335161;26;19997;-80
2024/04/17 05:08:18;;;;;;;6.38;2.38;;;5.40;99.90;;;;;;5391168;26;20015;-80
2024/04/17 05:10:50;;;;;;;5.85;2.42;;;5.40;99.90;;;;;;5335857;26;20009;-80
2024/04/17 05:13:16;;;;;;;7.85;2.33;;;5.40;99.90;;;;;;5334411;26;20057;-79
2024/04/17 05:15:43;;;;;;;5.20;2.10;;;5.50;99.90;;;;;;5335150;26;20027;-80
2024/04/17 05:18:08;;;;;;;7.50;2.10;;;5.40;99.90;;;;;;5331402;26;20001;-79
2024/04/17 05:20:34;;;;;;;5.97;2.20;;;5.50;99.90;;;;;;5393264;26;20458;-80
2024/04/17 05:23:00;;;;;;;5.82;2.53;;;5.50;99.90;;;;;;5334938;26;20023;-81
2024/04/17 05:25:26;;;;;;;4.53;2.03;;;5.40;99.90;;;;;;5393020;26;20016;-81
2024/04/17 05:27:52;;;;;;;4.95;1.80;;;5.40;99.90;;;;;;5338622;26;20020;-80
2024/04/17 05:30:18;;;;;;;5.25;1.88;;;5.50;99.90;;;;;;5332819;26;20001;-81
2024/04/17 05:32:47;;;;;;;4.45;2.20;;;5.40;99.90;;;;;;5335957;26;20436;-81
2024/04/17 05:35:13;;;;;;;9.00;2.80;;;5.50;99.90;;;;;;5337160;26;20009;-81
2024/04/17 05:37:39;;;;;;;7.10;2.17;;;5.50;99.90;;;;;;5335121;26;20037;-81
2024/04/17 05:40:06;;;;;;;7.20;2.35;;;5.60;99.90;;;;;;5339305;26;20329;-81
2024/04/17 05:42:32;;;;;;;4.75;2.10;;;5.60;99.90;;;;;;5334862;26;20082;-81
2024/04/17 05:44:58;;;;;;;5.15;2.28;;;5.60;99.90;;;;;;5333828;26;20010;-80
2024/04/17 05:47:24;;;;;;;5.40;2.10;;;5.70;99.90;;;;;;5333765;26;20093;-82
2024/04/17 05:49:50;;;;;;;5.22;2.15;;;5.70;99.90;;;;;;5335352;26;20053;-81
2024/04/17 05:52:17;;;;;;;6.70;2.00;;;5.80;99.90;;;;;;5333217;26;20009;-81
2024/04/17 05:54:43;;;;;;;4.65;2.00;;;5.90;99.90;;;;;;5332557;26;20013;-81
2024/04/17 05:57:09;;;;;;;6.30;1.90;;;5.90;99.90;;;;;;5334196;26;20033;-81
2024/04/17 05:59:35;;;;;;;5.40;1.77;;;5.90;99.90;;;;;;5331448;26;20020;-81
2024/04/17 06:02:02;;;;;;;4.97;1.75;;;6.00;99.90;;;;;;5334776;26;20086;-81
2024/04/17 06:04:29;;;;;;;7.60;2.53;;;6.00;99.90;;;;;;5331359;26;20082;-81
2024/04/17 06:06:55;;;;;;;3.97;1.55;;;6.10;99.90;;;;;;5335975;26;20016;-81
2024/04/17 06:09:21;;;;;;;3.97;1.40;;;6.10;99.90;;;;;;5334356;26;20005;-81
2024/04/17 06:11:50;;;;;;;3.10;1.27;;;6.10;99.90;;;;;;5332367;26;20008;-82
2024/04/17 06:14:16;;;;;;;3.33;1.67;;;6.10;99.90;;;;;;5332757;26;20052;-81
2024/04/17 06:16:45;;;;;;;4.35;1.20;;;6.20;99.90;;;;;;5337252;26;20012;-81
2024/04/17 06:19:11;;;;;;;3.92;1.38;;;6.10;99.90;;;;;;5327410;26;20039;-81
2024/04/17 06:21:37;;;;;;;4.72;1.13;;;6.10;99.90;;;;;;5328049;26;20017;-82
2024/04/17 06:24:03;;;;;;;5.70;0.93;;;6.20;99.90;;;;;;5336760;26;20061;-81
2024/04/17 06:26:29;;;;;;;4.22;1.00;;;6.10;99.90;;;;;;5329587;26;20001;-80
2024/04/17 06:28:56;;;;;;;3.50;0.77;;;6.10;99.90;;;;;;5334911;26;20012;-81
2024/04/17 06:31:22;;;;;;;3.47;1.13;;;6.10;99.90;;;;;;5338030;26;21208;-80
2024/04/17 06:33:48;;;;;;;3.67;0.85;;;6.10;99.90;;;;;;5340878;26;20020;-81
2024/04/17 06:36:14;;;;;;;4.78;1.02;;;6.10;99.90;;;;;;5334803;26;20033;-80
2024/04/17 06:38:40;;;;;;;6.05;1.33;;;6.20;99.90;;;;;;5337457;26;20040;-80
2024/04/17 06:41:06;;;;;;;5.07;1.33;;;6.10;99.90;;;;;;5336050;26;20009;-80
2024/04/17 06:43:32;;;;;;;5.70;1.30;;;6.30;99.90;;;;;;5338564;26;20016;-81
2024/04/17 06:45:58;;;;;;;5.60;1.25;;;6.10;99.90;;;;;;5335651;26;20009;-80
2024/04/17 06:48:26;;;;;;;6.00;1.40;;;6.10;99.90;;;;;;5336565;26;20005;-80
2024/04/17 06:50:52;;;;;;;5.97;1.40;;;6.10;99.90;;;;;;5335745;26;20009;-81
2024/04/17 06:53:18;;;;;;;6.47;1.63;;;6.10;99.90;;;;;;5334379;26;20016;-81
2024/04/17 06:55:44;;;;;;;6.65;1.52;;;6.10;99.90;;;;;;5340536;26;20001;-81
2024/04/17 06:58:10;;;;;;;7.32;1.45;;;6.20;99.90;;;;;;5337275;26;20045;-81
2024/04/17 07:00:36;;;;;;;7.53;1.60;;;6.20;99.90;;;;;;5337288;26;20359;-81
2024/04/17 07:03:02;;;;;;;7.68;1.60;;;6.20;99.90;;;;;;5394973;26;20009;-80
2024/04/17 07:05:28;;;;;;;7.35;2.15;;;6.20;99.90;;;;;;5338689;26;20009;-80
2024/04/17 07:07:55;;;;;;;6.78;1.60;;;6.20;99.90;;;;;;5338259;26;20009;-81
2024/04/17 07:10:21;;;;;;;7.78;1.50;;;6.30;99.90;;;;;;5334695;26;20001;-81
2024/04/17 07:12:50;;;;;;;6.82;1.60;;;6.30;99.90;;;;;;5338771;26;20021;-82
2024/04/17 07:15:16;;;;;;;5.63;1.38;;;6.40;99.90;;;;;;5334449;26;20044;-84
2024/04/17 07:17:43;;;;;;;7.78;1.90;;;6.50;99.90;;;;;;5334457;26;20459;-83
2024/04/17 07:20:09;;;;;;;7.43;2.03;;;6.50;99.90;;;;;;5338955;26;20456;-83
2024/04/17 07:22:36;;;;;;;6.03;1.77;;;6.50;99.90;;;;;;5338071;26;20020;-83
2024/04/17 07:25:02;;;;;;;7.65;1.88;;;6.60;99.90;;;;;;5337895;26;20012;-83
2024/04/17 07:27:28;;;;;;;7.18;1.65;;;6.60;99.90;;;;;;5336848;26;20009;-84
2024/04/17 07:29:54;;;;;;;9.13;2.15;;;6.70;99.90;;;;;;5335091;26;20340;-84
2024/04/17 07:32:20;;;;;;;8.30;2.42;;;6.70;99.90;;;;;;5338903;26;20009;-83
2024/04/17 07:34:46;;;;;;;9.82;2.15;;;6.80;99.90;;;;;;5338788;26;20013;-84
2024/04/17 07:37:13;;;;;;;9.77;2.22;;;6.90;99.90;;;;;;5338755;26;20024;-84
2024/04/17 07:39:39;;;;;;;13.57;2.42;;;6.80;99.90;;;;;;5334874;26;20037;-84
2024/04/17 07:42:05;;;;;;;7.75;2.00;;;6.90;99.90;;;;;;5339139;26;20005;-84
2024/04/17 07:44:31;;;;;;;10.55;2.05;;;7.00;99.90;;;;;;5336006;26;20015;-84
2024/04/17 07:46:57;;;;;;;9.57;2.15;;;7.10;99.90;;;;;;5335639;26;20107;-84
2024/04/17 07:49:23;;;;;;;8.93;2.33;;;7.10;99.90;;;;;;5336675;26;20009;-84
2024/04/17 07:51:49;;;;;;;10.90;2.25;;;7.20;99.90;;;;;;5336644;26;20025;-84
2024/04/17 07:54:15;;;;;;;9.23;2.13;;;7.30;99.90;;;;;;5337272;26;20460;-85
2024/04/17 07:56:50;;;;;;;7.82;2.05;;;7.40;99.90;;;;;;5337821;26;20439;-84
2024/04/17 07:59:15;;;;;;;9.73;2.30;;;7.50;99.90;;;;;;5335814;26;20005;-85
2024/04/17 08:01:41;;;;;;;7.82;2.75;;;7.80;99.90;;;;;;5337595;26;20108;-85
2024/04/17 08:04:07;;;;;;;8.15;1.80;;;8.00;99.90;;;;;;5338653;26;20091;-85
2024/04/17 08:06:33;;;;;;;9.50;2.30;;;8.30;99.90;;;;;;5334227;26;20011;-85
2024/04/17 08:08:59;;;;;;;8.35;1.90;;;8.40;99.90;;;;;;5336154;26;20544;-83
2024/04/17 08:11:25;;;;;;;9.63;1.85;;;8.50;99.90;;;;;;5335340;26;20016;-85
2024/04/17 08:13:51;;;;;;;9.43;1.95;;;8.50;99.90;;;;;;5339197;26;20016;-84
2024/04/17 08:16:16;;;;;;;10.40;1.98;;;8.50;99.90;;;;;;5336869;26;20015;-84
2024/04/17 08:18:43;;;;;;;9.52;1.90;;;8.50;99.90;;;;;;5338499;26;20024;-82
2024/04/17 08:21:09;;;;;;;10.32;2.22;;;8.50;99.90;;;;;;5339556;26;22254;-85
2024/04/17 08:23:35;;;;;;;7.85;1.75;;;8.40;99.90;;;;;;5333505;26;20677;-86
2024/04/17 08:26:01;;;;;;;7.60;2.30;;;8.30;99.90;;;;;;5337020;26;20340;-85
2024/04/17 08:28:27;;;;;;;9.60;2.53;;;8.30;99.90;;;;;;5338044;26;20008;-84
2024/04/17 08:30:53;;;;;;;8.95;1.90;;;8.30;99.90;;;;;;5329725;26;20329;-84
2024/04/17 08:33:20;;;;;;;8.93;1.90;;;8.20;99.90;;;;;;5336812;26;20005;-85
2024/04/17 08:35:45;;;;;;;11.77;2.17;;;8.30;99.90;;;;;;5339695;26;20020;-85
2024/04/17 08:38:11;;;;;;;8.40;2.05;;;8.50;99.90;;;;;;5390218;26;20021;-85
2024/04/17 08:40:37;;;;;;;9.60;1.67;;;8.60;99.90;;;;;;5336554;26;20005;-84
2024/04/17 08:43:04;;;;;;;8.02;1.95;;;8.70;99.90;;;;;;5335926;26;22948;-84
2024/04/17 08:45:32;;;;;;;7.30;1.60;;;8.70;99.90;;;;;;5338049;26;20009;-85
2024/04/17 08:48:01;;;;;;;8.27;2.20;;;8.60;99.90;;;;;;5336754;26;20078;-86
2024/04/17 08:50:30;;;;;;;9.32;1.67;;;8.70;99.90;;;;;;5334484;26;20017;-85
2024/04/17 08:52:58;;;;;;;10.20;1.92;;;8.60;99.90;;;;;;5333372;26;20005;-86
2024/04/17 08:55:26;;;;;;;7.70;1.67;;;8.60;99.90;;;;;;5337156;26;20005;-86
2024/04/17 08:57:54;;;;;;;9.87;1.90;;;8.60;99.90;;;;;;5334605;26;20005;-85
2024/04/17 09:00:25;;;;;;;7.47;1.63;;;8.60;99.90;;;;;;5337176;26;20020;-86
2024/04/17 09:02:57;;;;;;;9.10;1.98;;;8.50;99.90;;;;;;5336830;26;20013;-86
2024/04/17 09:05:29;;;;;;;8.55;1.75;;;8.60;99.90;;;;;;5335869;26;20008;-85
2024/04/17 09:07:58;;;;;;;10.85;1.88;;;8.70;99.90;;;;;;5395483;26;20009;-86
2024/04/17 09:10:24;;;;;;;9.68;1.75;;;8.90;99.90;;;;;;5335173;26;20013;-86
2024/04/17 09:12:54;;;;;;;6.05;1.48;;;9.00;99.90;;;;;;5338295;26;20456;-86
2024/04/17 09:15:20;;;;;;;9.63;2.22;;;9.10;99.90;;;;;;5335457;26;20009;-85
2024/04/17 09:17:47;;;;;;;6.47;1.40;;;9.20;99.90;;;;;;5337051;26;20017;-86
2024/04/17 09:20:15;;;;;;;8.02;1.92;;;9.10;99.90;;;;;;5334400;26;20001;-84
2024/04/17 09:22:41;;;;;;;7.60;1.52;;;9.00;99.90;;;;;;5336157;26;20085;-85
2024/04/17 09:25:13;;;;;;;5.32;1.73;;;8.90;99.90;;;;;;5333852;26;20012;-85
2024/04/17 09:27:39;;;;;;;6.47;1.50;;;8.80;99.90;;;;;;5335532;26;20051;-85
2024/04/17 09:30:05;;;;;;;8.52;1.35;;;8.80;99.90;;;;;;5336680;26;20015;-85
2024/04/17 09:32:35;;;;;;;8.02;1.70;;;8.80;99.90;;;;;;5366141;26;20012;-86
2024/04/17 09:35:01;;;;;;;9.52;1.40;;;9.00;99.90;;;;;;5330237;26;20024;-85
2024/04/17 09:37:27;;;;;;;8.80;1.50;;;9.20;99.90;;;;;;5334375;26;20019;-85
2024/04/17 09:40:08;;;;;;;9.40;1.30;;;9.50;99.90;;;;;;5336631;26;20009;-85
2024/04/17 09:42:35;;;;;;;6.72;1.48;;;9.80;99.90;;;;;;5362245;26;20001;-84
2024/04/17 09:45:02;;;;;;;7.47;1.30;;;10.10;99.90;;;;;;5336087;26;20016;-86
2024/04/17 09:47:29;;;;;;;5.60;1.48;;;10.30;99.90;;;;;;5334958;26;20533;-87
2024/04/17 09:50:01;;;;;;;7.82;1.20;;;10.50;99.90;;;;;;5339052;26;20041;-86
2024/04/17 09:52:29;;;;;;;6.85;1.50;;;10.60;99.90;;;;;;5333490;26;19997;-84
2024/04/17 09:55:01;;;;;;;6.50;1.27;;;10.50;99.90;;;;;;5337837;26;20086;-84
2024/04/17 09:57:28;;;;;;;7.47;1.58;;;10.30;99.90;;;;;;5332572;26;20064;-84
2024/04/17 09:59:55;;;;;;;4.78;1.10;;;10.10;99.90;;;;;;5337016;26;20000;-84
2024/04/17 10:02:24;;;;;;;9.20;1.60;;;10.00;99.90;;;;;;5335475;26;20403;-84
2024/04/17 10:04:52;;;;;;;7.53;1.98;;;9.90;99.90;;;;;;5339227;26;20009;-84
2024/04/17 10:07:20;;;;;;;7.90;1.70;;;9.80;99.90;;;;;;5338838;26;19997;-84
2024/04/17 10:09:48;;;;;;;10.43;2.05;;;9.90;99.90;;;;;;5335581;26;20005;-83
2024/04/17 10:12:14;;;;;;;7.30;1.73;;;10.00;99.90;;;;;;5339099;26;20036;-85
2024/04/17 10:14:41;;;;;;;8.88;1.58;;;9.90;99.90;;;;;;5337021;26;20078;-84
2024/04/17 10:17:07;;;;;;;6.28;1.58;;;9.70;99.90;;;;;;5341369;26;20077;-85
2024/04/17 10:19:34;;;;;;;7.70;1.75;;;9.80;99.90;;;;;;5334686;26;20019;-85
2024/04/17 10:22:04;;;;;;;6.72;1.15;;;10.00;99.90;;;;;;5337209;26;20013;-85
2024/04/17 10:24:30;;;;;;;5.20;0.98;;;10.30;99.90;;;;;;5338664;26;20012;-83
2024/04/17 10:26:57;;;;;;;5.68;1.25;;;10.60;99.90;;;;;;5333462;26;20024;-85
2024/04/17 10:29:27;;;;;;;4.18;1.17;;;10.70;99.90;;;;;;5337552;26;20016;-83
2024/04/17 10:31:56;;;;;;;6.50;1.27;;;10.90;99.90;;;;;;5338425;26;20001;-85
2024/04/17 10:34:23;;;;;;;6.97;1.00;;;11.10;99.90;;;;;;5338710;26;20013;-86
2024/04/17 10:36:59;;;;;;;4.85;1.00;;;11.40;99.90;;;;;;5338478;26;20587;-86
2024/04/17 10:39:26;;;;;;;6.95;0.93;;;11.30;98.20;;;;;;5337997;26;20012;-85
2024/04/17 10:41:52;;;;;;;5.13;1.23;;;11.10;99.50;;;;;;5339864;26;20460;-85
2024/04/17 10:44:22;;;;;;;8.20;1.67;;;11.10;99.90;;;;;;5364937;26;20021;-85
2024/04/17 10:46:48;;;;;;;6.15;1.25;;;11.30;99.90;;;;;;5339697;26;20021;-84
2024/04/17 10:49:18;;;;;;;4.20;0.90;;;11.60;99.90;;;;;;5337646;26;20000;-84
2024/04/17 10:51:44;;;;;;;8.05;1.40;;;11.80;99.90;;;;;;5338328;26;20032;-84
2024/04/17 10:54:13;;;;;;;5.70;1.10;;;11.90;99.90;;;;;;5336526;26;19997;-85
2024/04/17 10:56:40;;;;;;;6.60;1.02;;;11.70;99.40;;;;;;5340389;26;20459;-85
2024/04/17 10:59:06;;;;;;;5.53;1.27;;;11.60;99.90;;;;;;5337427;26;20036;-86
2024/04/17 11:01:32;;;;;;;4.18;0.88;;;11.50;99.90;;;;;;5337881;26;20348;-85
2024/04/17 11:03:58;;;;;;;7.55;1.23;;;11.40;99.90;;;;;;5338156;26;20005;-85
2024/04/17 11:06:27;;;;;;;5.55;0.73;;;11.20;99.90;;;;;;5339032;26;20008;-85
2024/04/17 11:08:53;;;;;;;3.97;0.80;;;11.30;99.90;;;;;;5340423;26;20027;-86
2024/04/17 11:11:19;;;;;;;4.45;0.80;;;11.10;99.90;;;;;;5336872;26;20000;-85
2024/04/17 11:13:46;;;;;;;5.35;1.05;;;11.20;99.90;;;;;;5338729;26;20009;-85
2024/04/17 11:16:15;;;;;;;5.30;0.90;;;11.30;99.90;;;;;;5305930;26;20021;-83
2024/04/17 11:18:42;;;;;;;4.90;1.10;;;11.40;99.90;;;;;;5336308;26;20009;-84
2024/04/17 11:21:14;;;;;;;5.50;1.25;;;11.50;99.90;;;;;;5348501;26;20000;-85
2024/04/17 11:23:42;;;;;;;6.40;1.45;;;11.70;99.90;;;;;;5340777;26;20479;-84
2024/04/17 11:26:11;;;;;;;4.65;1.10;;;12.00;99.90;;;;;;5337699;26;19997;-85
2024/04/17 11:28:41;;;;;;;4.82;1.48;;;12.20;99.90;;;;;;5338566;26;20855;-85
2024/04/17 11:31:09;;;;;;;8.18;1.30;;;12.20;99.90;;;;;;5335614;26;20475;-85
2024/04/17 11:33:39;;;;;;;6.28;1.35;;;12.10;99.90;;;;;;5338828;26;20083;-84
2024/04/17 11:36:11;;;;;;;6.30;1.70;;;11.80;99.90;;;;;;5336848;26;20016;-86
2024/04/17 11:38:37;;;;;;;5.45;0.90;;;11.60;99.90;;;;;;5335660;26;20017;-86
2024/04/17 11:41:04;;;;;;;5.93;1.52;;;11.40;99.90;;;;;;5336090;26;20013;-84
2024/04/17 11:43:30;;;;;;;6.07;1.42;;;11.20;99.90;;;;;;5338403;26;20406;-84
2024/04/17 11:45:55;;;;;;;5.20;1.50;;;11.10;99.90;;;;;;5338227;26;20005;-84
2024/04/17 11:48:21;;;;;;;4.95;1.30;;;10.90;99.90;;;;;;5340413;26;20020;-84
2024/04/17 11:50:48;;;;;;;6.18;1.63;;;10.90;99.90;;;;;;5335608;26;20005;-84
2024/04/17 11:53:14;;;;;;;6.05;1.30;;;10.80;99.90;;;;;;5337789;26;20056;-83
2024/04/17 11:55:40;;;;;;;6.03;1.67;;;10.60;99.90;;;;;;5336008;26;20025;-85
2024/04/17 11:58:07;;;;;;;6.88;1.30;;;10.50;99.90;;;;;;5336834;26;20025;-84
2024/04/17 12:00:33;;;;;;;4.13;0.93;;;10.50;99.90;;;;;;5336771;26;20009;-85
2024/04/17 12:02:59;;;;;;;6.45;1.35;;;10.40;99.90;;;;;;5308291;26;20052;-85
2024/04/17 12:05:25;;;;;;;5.18;1.08;;;10.40;99.90;;;;;;5336709;26;20021;-85
2024/04/17 12:07:51;;;;;;;5.97;1.33;;;10.30;99.90;;;;;;5361746;26;20004;-83
2024/04/17 12:10:19;;;;;;;7.40;1.25;;;10.30;99.90;;;;;;5335904;26;20009;-84
2024/04/17 12:12:46;;;;;;;5.63;0.90;;;10.30;99.90;;;;;;5338731;26;20099;-84
2024/04/17 12:15:12;;;;;;;5.53;1.23;;;10.30;99.90;;;;;;5335011;26;20009;-85
2024/04/17 12:17:38;;;;;;;5.20;1.02;;;10.50;99.90;;;;;;5337677;26;20727;-86
2024/04/17 12:20:07;;;;;;;3.03;0.63;;;10.50;99.90;;;;;;5339156;26;20020;-84
2024/04/17 12:22:33;;;;;;;2.78;0.70;;;10.60;99.90;;;;;;5337986;26;20009;-84
2024/04/17 12:27:46;;;;;;;4.22;0.93;;;10.70;99.90;;;;;;5341011;26;20040;-84
2024/04/17 12:30:12;;;;;;;4.47;1.00;;;11.00;99.90;;;;;;5333859;26;20027;-84
2024/04/17 12:32:37;;;;;;;5.50;1.30;;;11.30;98.90;;;;;;5339180;26;20001;-82
2024/04/17 12:35:04;;;;;;;3.35;0.73;;;11.50;93.90;;;;;;5339450;26;20055;-83
2024/04/17 12:37:30;;;;;;;7.22;0.90;;;11.60;94.40;;;;;;5334435;26;20009;-83
2024/04/17 12:39:56;;;;;;;6.53;2.00;;;11.80;95.30;;;;;;5339616;26;20013;-83
2024/04/17 12:42:22;;;;;;;7.43;1.92;;;12.10;95.70;;;;;;5336932;26;20020;-83
2024/04/17 12:44:49;;;;;;;3.55;1.00;;;12.20;97.30;;;;;;5338360;26;20013;-84
2024/04/17 12:47:14;;;;;;;4.95;1.17;;;12.40;97.60;;;;;;5335313;26;20456;-85
2024/04/17 12:49:40;;;;;;;5.28;0.90;;;12.70;98.00;;;;;;5334540;26;20032;-85
2024/04/17 12:52:06;;;;;;;3.55;0.80;;;12.70;93.90;;;;;;5334894;26;20012;-84
2024/04/17 12:54:32;;;;;;;4.30;1.15;;;12.70;93.70;;;;;;5358817;26;20009;-84
2024/04/17 12:56:58;;;;;;;5.30;1.15;;;12.50;92.90;;;;;;5334807;26;20005;-84
2024/04/17 12:59:24;;;;;;;4.53;1.30;;;12.50;93.00;;;;;;5337216;26;20016;-83
2024/04/17 13:01:50;;;;;;;4.22;1.00;;;12.50;92.30;;;;;;5337809;26;20036;-85
2024/04/17 13:04:16;;;;;;;5.03;0.70;;;12.60;91.60;;;;;;5336530;26;20017;-83
2024/04/17 13:06:42;;;;;;;4.65;1.02;;;12.60;91.70;;;;;;5333832;26;20040;-84
2024/04/17 13:09:08;;;;;;;4.40;0.90;;;12.50;93.50;;;;;;5335595;26;20054;-83
2024/04/17 13:11:38;;;;;;;1.45;0.60;;;12.40;95.50;;;;;;5306219;26;21857;-84
2024/04/17 13:14:05;;;;;;;;;;;12.30;95.90;;;;;;5360678;26;20016;-84
2024/04/17 13:16:30;;;;;;;3.05;0.80;;;11.80;92.60;;;;;;5334226;26;19995;-82
2024/04/17 13:18:56;;;;;;;1.63;0.40;;;11.30;94.20;;;;;;5365656;26;20013;-83
2024/04/17 13:21:22;;;;;;;1.20;0.47;;;10.80;97.00;;;;;;5337324;26;20012;-84